createdAt,value
2022-07-25T00:01:44.029Z,99.90
2022-07-25T00:04:12.246Z,99.90
2022-07-25T00:06:39.792Z,99.90
2022-07-25T00:09:07.089Z,99.90
2022-07-25T00:11:34.018Z,99.90
2022-07-25T00:14:00.662Z,99.90
2022-07-25T00:16:27.450Z,99.90
2022-07-25T00:18:54.096Z,99.90
2022-07-25T00:21:20.925Z,99.90
2022-07-25T00:23:47.633Z,99.90
2022-07-25T00:26:14.561Z,99.90
2022-07-25T00:28:41.428Z,99.90
2022-07-25T00:31:08.124Z,99.90
2022-07-25T00:33:34.858Z,99.90
2022-07-25T00:36:01.582Z,99.90
2022-07-25T00:38:28.272Z,99.90
2022-07-25T00:40:55.699Z,99.90
2022-07-25T00:43:22.770Z,99.90
2022-07-25T00:45:49.496Z,99.90
2022-07-25T00:48:16.284Z,99.90
2022-07-25T00:50:43.399Z,99.90
2022-07-25T00:53:10.134Z,99.90
2022-07-25T00:55:37.405Z,99.90
2022-07-25T00:58:04.679Z,99.90
2022-07-25T01:00:31.544Z,99.90
2022-07-25T01:02:58.553Z,99.90
2022-07-25T01:05:25.490Z,99.90
2022-07-25T01:07:52.517Z,99.90
2022-07-25T01:10:19.287Z,99.90
2022-07-25T01:12:51.767Z,99.90
2022-07-25T01:15:20.001Z,99.90
2022-07-25T01:17:46.970Z,99.90
2022-07-25T01:20:18.545Z,99.90
2022-07-25T01:22:46.205Z,99.90
2022-07-25T01:25:14.189Z,99.90
2022-07-25T01:27:41.583Z,99.90
2022-07-25T01:30:11.233Z,99.90
2022-07-25T01:32:38.042Z,99.90
2022-07-25T01:35:06.074Z,99.90
2022-07-25T01:37:33.034Z,99.90
2022-07-25T01:39:59.921Z,99.90
2022-07-25T01:42:26.761Z,99.90
2022-07-25T01:44:53.556Z,99.90
2022-07-25T01:47:20.274Z,99.90
2022-07-25T01:49:47.015Z,99.90
2022-07-25T01:52:14.361Z,99.90
2022-07-25T01:54:41.486Z,99.90
2022-07-25T01:57:10.532Z,99.90
2022-07-25T01:59:40.587Z,99.90
2022-07-25T02:02:08.959Z,99.90
2022-07-25T02:04:36.875Z,99.90
2022-07-25T02:07:04.437Z,99.90
2022-07-25T02:09:33.146Z,99.90
2022-07-25T02:11:59.818Z,99.90
2022-07-25T02:14:26.474Z,99.90
2022-07-25T02:16:54.115Z,99.90
2022-07-25T02:19:20.897Z,99.90
2022-07-25T02:21:47.551Z,99.90
2022-07-25T02:24:14.458Z,99.90
2022-07-25T02:26:41.181Z,99.90
2022-07-25T02:29:07.825Z,99.90
2022-07-25T02:31:34.588Z,99.90
2022-07-25T02:34:01.455Z,99.90
2022-07-25T02:36:28.197Z,99.90
2022-07-25T02:38:54.849Z,99.90
2022-07-25T02:41:21.574Z,99.90
2022-07-25T02:43:48.217Z,99.90
2022-07-25T02:46:15.031Z,99.90
2022-07-25T02:48:41.994Z,99.90
2022-07-25T02:51:09.052Z,99.90
2022-07-25T02:53:56.138Z,99.90
2022-07-25T02:56:22.386Z,99.90
2022-07-25T02:58:50.265Z,99.90
2022-07-25T03:01:17.068Z,99.90
2022-07-25T03:03:43.995Z,99.90
2022-07-25T03:06:10.724Z,99.90
2022-07-25T03:08:37.503Z,99.90
2022-07-25T03:11:04.671Z,99.90
2022-07-25T03:13:33.068Z,99.90
2022-07-25T03:16:00.056Z,99.90
2022-07-25T03:18:26.707Z,99.90
2022-07-25T03:20:53.420Z,99.90
2022-07-25T03:23:20.078Z,99.90
2022-07-25T03:25:46.754Z,99.90
2022-07-25T03:28:13.461Z,99.90
2022-07-25T03:30:40.490Z,99.90
2022-07-25T03:33:07.149Z,99.90
2022-07-25T03:35:33.882Z,99.90
2022-07-25T03:38:02.010Z,99.90
2022-07-25T03:40:28.738Z,99.90
2022-07-25T03:42:55.473Z,99.90
2022-07-25T03:45:22.242Z,99.90
2022-07-25T03:47:48.877Z,99.90
2022-07-25T03:50:15.853Z,99.90
2022-07-25T03:52:42.640Z,99.90
2022-07-25T03:55:11.003Z,99.90
2022-07-25T03:57:38.571Z,99.90
2022-07-25T04:00:10.252Z,99.90
2022-07-25T04:02:38.115Z,99.90
2022-07-25T04:05:07.197Z,99.90
2022-07-25T04:07:34.445Z,99.90
2022-07-25T04:10:01.846Z,99.90
2022-07-25T04:12:28.734Z,99.90
2022-07-25T04:14:55.416Z,99.90
2022-07-25T04:17:22.164Z,99.90
2022-07-25T04:19:51.061Z,99.90
2022-07-25T04:22:17.705Z,99.90
2022-07-25T04:24:44.436Z,99.90
2022-07-25T04:27:11.046Z,99.90
2022-07-25T04:29:37.858Z,99.90
2022-07-25T04:32:05.175Z,99.90
2022-07-25T04:34:32.056Z,99.90
2022-07-25T04:36:58.675Z,99.90
2022-07-25T04:39:25.359Z,99.90
2022-07-25T04:41:52.115Z,99.90
2022-07-25T04:44:18.834Z,99.90
2022-07-25T04:46:45.460Z,99.90
2022-07-25T04:49:12.237Z,99.90
2022-07-25T04:51:39.063Z,99.90
2022-07-25T04:54:06.324Z,99.90
2022-07-25T04:56:33.223Z,99.90
2022-07-25T04:59:06.215Z,99.90
2022-07-25T05:01:33.891Z,99.90
2022-07-25T05:04:00.653Z,99.90
2022-07-25T05:06:27.324Z,99.90
2022-07-25T05:08:54.094Z,99.90
2022-07-25T05:11:20.742Z,99.90
2022-07-25T05:13:47.630Z,99.90
2022-07-25T05:16:14.495Z,99.90
2022-07-25T05:18:41.262Z,99.90
2022-07-25T05:21:13.316Z,99.90
2022-07-25T05:23:40.882Z,99.90
2022-07-25T05:26:07.634Z,99.90
2022-07-25T05:28:34.245Z,99.90
2022-07-25T05:31:00.966Z,99.90
2022-07-25T05:33:27.856Z,99.90
2022-07-25T05:35:54.718Z,99.90
2022-07-25T05:38:21.464Z,99.90
2022-07-25T05:40:49.012Z,99.90
2022-07-25T05:43:15.673Z,99.90
2022-07-25T05:45:42.474Z,99.90
2022-07-25T05:48:09.170Z,99.90
2022-07-25T05:50:38.950Z,99.90
2022-07-25T05:53:05.575Z,99.90
2022-07-25T05:55:32.639Z,99.90
2022-07-25T05:57:59.643Z,99.90
2022-07-25T06:00:29.403Z,99.90
2022-07-25T06:03:00.579Z,99.90
2022-07-25T06:05:27.460Z,99.90
2022-07-25T06:07:54.186Z,99.90
2022-07-25T06:10:21.350Z,99.90
2022-07-25T06:12:48.126Z,99.90
2022-07-25T06:15:22.614Z,99.90
2022-07-25T06:17:53.655Z,99.90
2022-07-25T06:20:20.504Z,99.90
2022-07-25T06:22:47.201Z,99.90
2022-07-25T06:25:14.993Z,99.90
2022-07-25T06:27:41.797Z,99.90
2022-07-25T06:30:19.193Z,99.90
2022-07-25T06:32:48.230Z,99.90
2022-07-25T06:35:15.302Z,99.90
2022-07-25T06:37:41.974Z,99.90
2022-07-25T06:40:09.240Z,99.90
2022-07-25T06:42:47.234Z,99.90
2022-07-25T06:45:15.204Z,99.90
2022-07-25T06:47:43.239Z,99.90
2022-07-25T06:50:13.047Z,99.90
2022-07-25T06:52:40.913Z,99.90
2022-07-25T06:55:09.485Z,99.90
2022-07-25T06:57:37.039Z,99.90
2022-07-25T07:00:08.058Z,99.90
2022-07-25T07:02:34.829Z,99.90
2022-07-25T07:05:01.835Z,99.90
2022-07-25T07:07:28.460Z,98.40
2022-07-25T07:09:55.144Z,97.50
2022-07-25T07:12:22.085Z,95.50
2022-07-25T07:14:48.866Z,96.00
2022-07-25T07:17:15.504Z,94.80
2022-07-25T07:19:44.484Z,93.70
2022-07-25T07:22:11.421Z,92.90
2022-07-25T07:24:44.296Z,93.00
2022-07-25T07:27:14.797Z,91.10
2022-07-25T07:29:42.020Z,91.30
2022-07-25T07:32:08.847Z,90.20
2022-07-25T07:34:35.521Z,88.10
2022-07-25T07:37:03.499Z,83.00
2022-07-25T07:39:30.182Z,83.60
2022-07-25T07:42:17.940Z,82.30
2022-07-25T07:45:04.320Z,78.10
2022-07-25T07:47:52.813Z,76.50
2022-07-25T07:50:28.109Z,78.90
2022-07-25T07:52:59.318Z,77.30
2022-07-25T07:55:44.925Z,73.80
2022-07-25T07:58:15.616Z,76.80
2022-07-25T08:00:43.776Z,72.90
2022-07-25T08:03:10.628Z,74.20
2022-07-25T08:05:40.810Z,73.60
2022-07-25T08:08:09.542Z,71.40
2022-07-25T08:10:38.777Z,69.30
2022-07-25T08:13:16.917Z,67.10
2022-07-25T08:15:46.417Z,69.40
2022-07-25T08:18:17.067Z,64.30
2022-07-25T08:20:48.575Z,65.90
2022-07-25T08:23:16.007Z,63.70
2022-07-25T08:25:43.470Z,62.40
2022-07-25T08:28:10.192Z,61.00
2022-07-25T08:30:38.717Z,61.00
2022-07-25T08:33:09.653Z,63.90
2022-07-25T08:35:36.654Z,60.60
2022-07-25T08:38:04.869Z,59.10
2022-07-25T08:40:32.573Z,61.30
2022-07-25T08:43:00.430Z,58.40
2022-07-25T08:45:28.772Z,58.70
2022-07-25T08:51:44.116Z,58.20
2022-07-25T08:54:11.236Z,57.50
2022-07-25T08:56:37.960Z,56.40
2022-07-25T08:59:10.202Z,56.30
2022-07-25T09:01:40.069Z,56.50
2022-07-25T09:04:10.167Z,57.30
2022-07-25T09:06:38.020Z,55.10
2022-07-25T09:09:05.188Z,53.30
2022-07-25T09:11:35.548Z,53.90
2022-07-25T09:14:08.847Z,52.60
2022-07-25T09:16:41.375Z,54.30
2022-07-25T09:19:12.595Z,52.30
2022-07-25T09:21:41.018Z,52.30
2022-07-25T09:24:16.743Z,53.50
2022-07-25T09:26:52.304Z,53.40
2022-07-25T09:29:25.693Z,52.80
2022-07-25T09:31:53.247Z,53.30
2022-07-25T09:34:31.728Z,54.90
2022-07-25T09:36:58.819Z,54.00
2022-07-25T09:39:50.481Z,53.70
2022-07-25T09:42:29.798Z,53.20
2022-07-25T09:45:03.185Z,54.20
2022-07-25T09:47:30.723Z,52.60
2022-07-25T09:49:57.703Z,53.00
2022-07-25T09:52:24.373Z,53.60
2022-07-25T09:54:51.210Z,52.70
2022-07-25T09:57:18.143Z,52.80
2022-07-25T09:59:44.788Z,53.20
2022-07-25T10:02:37.903Z,52.50
2022-07-25T10:05:51.547Z,52.30
2022-07-25T10:08:19.885Z,52.30
2022-07-25T10:10:46.781Z,51.50
2022-07-25T10:13:28.547Z,52.90
2022-07-25T10:15:55.628Z,52.90
2022-07-25T10:18:25.140Z,51.40
2022-07-25T10:20:54.910Z,50.80
2022-07-25T10:23:24.576Z,51.90
2022-07-25T10:26:13.314Z,51.70
2022-07-25T10:28:47.236Z,51.70
2022-07-25T10:31:21.788Z,52.00
2022-07-25T10:33:52.008Z,50.90
2022-07-25T10:36:20.589Z,51.30
2022-07-25T10:38:47.788Z,51.40
2022-07-25T10:41:17.025Z,49.40
2022-07-25T10:43:48.724Z,49.30
2022-07-25T10:46:19.543Z,50.20
2022-07-25T10:49:01.122Z,50.50
2022-07-25T10:51:31.184Z,49.40
2022-07-25T10:53:58.393Z,50.80
2022-07-25T10:56:29.162Z,48.90
2022-07-25T10:59:01.372Z,48.10
2022-07-25T11:01:33.403Z,49.10
2022-07-25T11:04:02.707Z,48.10
2022-07-25T11:06:35.369Z,48.70
2022-07-25T11:09:04.736Z,48.80
2022-07-25T11:11:40.542Z,48.50
2022-07-25T11:14:16.204Z,47.80
2022-07-25T11:16:43.989Z,49.30
2022-07-25T11:19:28.334Z,47.30
2022-07-25T11:22:00.638Z,47.00
2022-07-25T11:24:45.370Z,48.30
2022-07-25T11:27:33.382Z,47.80
2022-07-25T11:30:12.320Z,49.10
2022-07-25T11:32:43.293Z,46.90
2022-07-25T11:35:11.646Z,47.30
2022-07-25T11:37:40.633Z,45.00
2022-07-25T11:40:08.202Z,44.90
2022-07-25T11:42:44.240Z,45.00
2022-07-25T11:45:34.100Z,43.90
2022-07-25T11:48:08.056Z,45.90
2022-07-25T11:50:40.307Z,45.20
2022-07-25T11:53:11.217Z,45.60
2022-07-25T11:55:45.401Z,44.70
2022-07-25T11:58:13.643Z,44.80
2022-07-25T12:00:47.301Z,44.80
2022-07-25T12:03:19.857Z,45.70
2022-07-25T12:05:47.561Z,45.90
2022-07-25T12:08:16.335Z,46.40
2022-07-25T12:10:44.207Z,47.00
2022-07-25T12:13:25.108Z,46.60
2022-07-25T12:15:52.134Z,45.60
2022-07-25T12:18:19.039Z,46.70
2022-07-25T12:20:45.867Z,46.60
2022-07-25T12:23:13.566Z,45.00
2022-07-25T12:25:45.556Z,45.50
2022-07-25T12:28:13.130Z,45.30
2022-07-25T12:30:41.922Z,44.70
2022-07-25T12:33:08.940Z,44.80
2022-07-25T12:35:38.961Z,45.80
2022-07-25T12:38:05.860Z,44.30
2022-07-25T12:40:32.709Z,44.20
2022-07-25T12:42:59.533Z,43.70
2022-07-25T12:45:27.146Z,43.10
2022-07-25T12:47:54.253Z,44.00
2022-07-25T12:50:21.005Z,43.20
2022-07-25T12:52:48.137Z,43.20
2022-07-25T12:55:17.704Z,42.20
2022-07-25T12:57:45.075Z,42.70
2022-07-25T13:00:14.714Z,42.80
2022-07-25T13:02:41.594Z,41.70
2022-07-25T13:05:08.797Z,40.30
2022-07-25T13:07:35.483Z,40.50
2022-07-25T13:10:03.726Z,41.30
2022-07-25T13:12:30.929Z,41.30
2022-07-25T13:14:58.833Z,40.70
2022-07-25T13:17:27.776Z,41.60
2022-07-25T13:19:56.268Z,41.60
2022-07-25T13:22:23.722Z,42.90
2022-07-25T13:24:50.817Z,40.30
2022-07-25T13:27:22.063Z,40.40
2022-07-25T13:29:54.132Z,40.40
2022-07-25T13:32:22.294Z,41.20
2022-07-25T13:34:49.123Z,41.20
2022-07-25T13:37:15.778Z,42.50
2022-07-25T13:39:42.697Z,42.30
2022-07-25T13:42:09.972Z,42.70
2022-07-25T13:44:36.634Z,41.70
2022-07-25T13:47:03.445Z,42.20
2022-07-25T13:49:31.542Z,42.70
2022-07-25T13:51:58.206Z,42.40
2022-07-25T13:54:24.873Z,42.20
2022-07-25T13:56:51.602Z,43.10
2022-07-25T13:59:21.369Z,44.30
2022-07-25T14:01:49.570Z,44.50
2022-07-25T14:04:16.841Z,42.80
2022-07-25T14:06:46.518Z,43.60
2022-07-25T14:09:13.167Z,43.90
2022-07-25T14:11:39.916Z,43.50
2022-07-25T14:14:06.694Z,41.40
2022-07-25T14:16:34.393Z,42.00
2022-07-25T14:19:02.156Z,42.00
2022-07-25T14:21:29.194Z,42.50
2022-07-25T14:23:56.073Z,41.70
2022-07-25T14:26:22.916Z,42.30
2022-07-25T14:28:49.857Z,42.60
2022-07-25T14:31:16.638Z,42.90
2022-07-25T14:33:43.366Z,42.80
2022-07-25T14:36:10.626Z,43.30
2022-07-25T14:38:37.303Z,42.70
2022-07-25T14:41:09.211Z,43.10
2022-07-25T14:43:39.821Z,42.90
2022-07-25T14:46:08.030Z,42.90
2022-07-25T14:48:37.170Z,42.20
2022-07-25T14:51:04.203Z,41.80
2022-07-25T14:53:30.966Z,42.10
2022-07-25T14:55:57.682Z,42.00
2022-07-25T14:58:24.397Z,41.70
2022-07-25T15:00:51.107Z,41.20
2022-07-25T15:03:17.853Z,40.90
2022-07-25T15:05:45.880Z,41.50
2022-07-25T15:08:14.181Z,39.80
2022-07-25T15:10:41.205Z,41.00
2022-07-25T15:13:30.085Z,41.90
2022-07-25T15:15:56.035Z,41.90
2022-07-25T15:18:23.035Z,42.00
2022-07-25T15:20:51.681Z,41.30
2022-07-25T15:23:18.411Z,42.10
2022-07-25T15:26:03.601Z,41.70
2022-07-25T15:28:35.261Z,42.10
2022-07-25T15:31:02.651Z,42.40
2022-07-25T15:33:29.516Z,42.10
2022-07-25T15:35:56.417Z,42.40
2022-07-25T15:38:23.505Z,42.80
2022-07-25T15:40:50.183Z,41.90
2022-07-25T15:43:17.081Z,41.60
2022-07-25T15:45:45.903Z,42.30
2022-07-25T15:48:14.984Z,42.80
2022-07-25T15:50:43.636Z,42.50
2022-07-25T15:53:11.282Z,42.40
2022-07-25T15:55:39.214Z,43.80
2022-07-25T15:58:06.489Z,43.70
2022-07-25T16:00:33.806Z,43.50
2022-07-25T16:03:00.543Z,43.60
2022-07-25T16:05:27.309Z,43.60
2022-07-25T16:07:54.011Z,43.80
2022-07-25T16:10:20.685Z,43.90
2022-07-25T16:12:47.411Z,43.60
2022-07-25T16:15:14.198Z,43.50
2022-07-25T16:17:40.896Z,43.90
2022-07-25T16:20:09.882Z,44.50
2022-07-25T16:22:36.630Z,45.70
2022-07-25T16:25:04.240Z,44.70
2022-07-25T16:27:30.921Z,43.20
2022-07-25T16:29:57.685Z,44.20
2022-07-25T16:32:24.578Z,43.80
2022-07-25T16:34:51.393Z,43.90
2022-07-25T16:37:18.126Z,44.50
2022-07-25T16:39:44.852Z,44.20
2022-07-25T16:42:11.551Z,44.00
2022-07-25T16:44:38.278Z,45.20
2022-07-25T16:47:05.058Z,45.00
2022-07-25T16:49:31.781Z,45.10
2022-07-25T16:51:58.409Z,45.20
2022-07-25T16:54:25.481Z,45.90
2022-07-25T16:56:54.879Z,45.70
2022-07-25T16:59:22.566Z,45.60
2022-07-25T17:01:49.579Z,46.30
2022-07-25T17:04:16.503Z,47.00
2022-07-25T17:06:43.158Z,47.60
2022-07-25T17:09:10.359Z,47.30
2022-07-25T17:11:37.230Z,47.80
2022-07-25T17:14:04.471Z,47.40
2022-07-25T17:16:32.169Z,48.20
2022-07-25T17:18:58.969Z,47.50
2022-07-25T17:21:25.670Z,47.30
2022-07-25T17:23:53.160Z,48.40
2022-07-25T17:26:20.898Z,48.40
2022-07-25T17:28:47.900Z,48.70
2022-07-25T17:31:14.981Z,48.50
2022-07-25T17:33:41.953Z,49.20
2022-07-25T17:36:09.312Z,48.90
2022-07-25T17:38:37.131Z,49.00
2022-07-25T17:41:04.466Z,49.50
2022-07-25T17:43:31.159Z,49.40
2022-07-25T17:45:57.852Z,49.90
2022-07-25T17:48:24.583Z,49.80
2022-07-25T17:50:52.310Z,53.70
2022-07-25T17:53:19.112Z,54.60
2022-07-25T17:55:46.537Z,56.50
2022-07-25T17:58:13.591Z,69.40
2022-07-25T18:00:40.459Z,74.00
2022-07-25T18:03:07.292Z,80.60
2022-07-25T18:05:34.108Z,86.90
2022-07-25T18:08:02.692Z,93.80
2022-07-25T18:10:29.708Z,99.10
2022-07-25T18:12:56.329Z,99.90
2022-07-25T18:15:23.014Z,99.90
2022-07-25T18:17:49.718Z,99.90
2022-07-25T18:20:17.847Z,99.90
2022-07-25T18:22:45.347Z,99.90
2022-07-25T18:25:13.305Z,99.90
2022-07-25T18:27:44.699Z,99.90
2022-07-25T18:30:12.023Z,99.90
2022-07-25T18:32:38.844Z,99.90
2022-07-25T18:35:06.782Z,99.90
2022-07-25T18:37:33.592Z,99.90
2022-07-25T18:40:00.394Z,99.90
2022-07-25T18:42:29.968Z,99.90
2022-07-25T18:44:57.158Z,99.90
2022-07-25T18:47:26.391Z,99.90
2022-07-25T18:49:57.705Z,99.90
2022-07-25T18:52:24.801Z,99.90
2022-07-25T18:54:51.484Z,99.90
2022-07-25T18:57:18.298Z,99.90
2022-07-25T18:59:45.152Z,99.90
2022-07-25T19:02:11.965Z,99.90
2022-07-25T19:04:38.689Z,99.90
2022-07-25T19:07:05.417Z,99.90
2022-07-25T19:09:32.134Z,99.90
2022-07-25T19:11:58.977Z,99.90
2022-07-25T19:14:27.308Z,99.90
2022-07-25T19:16:54.648Z,99.90
2022-07-25T19:19:21.412Z,99.90
2022-07-25T19:21:48.716Z,99.90
2022-07-25T19:24:15.463Z,99.90
2022-07-25T19:26:42.592Z,99.90
2022-07-25T19:29:09.975Z,99.90
2022-07-25T19:31:38.160Z,99.90
2022-07-25T19:34:06.611Z,99.90
2022-07-25T19:36:34.045Z,99.90
2022-07-25T19:39:01.254Z,99.90
2022-07-25T19:41:28.396Z,99.90
2022-07-25T19:43:55.290Z,99.90
2022-07-25T19:46:21.947Z,99.90
2022-07-25T19:48:48.856Z,99.90
2022-07-25T19:51:15.672Z,99.90
2022-07-25T19:53:42.336Z,99.90
2022-07-25T19:56:09.210Z,99.90
2022-07-25T19:58:38.876Z,99.90
2022-07-25T20:01:05.782Z,99.90
2022-07-25T20:03:32.558Z,99.90
2022-07-25T20:05:59.188Z,99.90
2022-07-25T20:08:25.825Z,99.90
2022-07-25T20:10:52.766Z,99.90
2022-07-25T20:13:19.785Z,99.90
2022-07-25T20:15:46.534Z,99.90
2022-07-25T20:18:18.906Z,99.90
2022-07-25T20:20:47.039Z,99.90
2022-07-25T20:23:13.777Z,99.90
2022-07-25T20:25:40.474Z,99.90
2022-07-25T20:28:07.182Z,99.90
2022-07-25T20:30:35.101Z,99.90
2022-07-25T20:33:05.319Z,99.90
2022-07-25T20:35:36.534Z,99.90
2022-07-25T20:38:03.493Z,99.90
2022-07-25T20:40:36.328Z,99.90
2022-07-25T20:43:04.502Z,99.90
2022-07-25T20:45:31.257Z,99.90
2022-07-25T20:47:58.044Z,99.90
2022-07-25T20:50:24.927Z,99.90
2022-07-25T20:52:51.870Z,99.90
2022-07-25T20:55:18.596Z,99.90
2022-07-25T20:57:50.212Z,99.90
2022-07-25T21:00:18.033Z,99.90
2022-07-25T21:02:44.968Z,99.90
2022-07-25T21:05:11.758Z,99.90
2022-07-25T21:07:38.371Z,99.90
2022-07-25T21:10:05.394Z,99.90
2022-07-25T21:12:33.063Z,99.90
2022-07-25T21:15:01.208Z,99.90
2022-07-25T21:17:28.194Z,99.90
2022-07-25T21:19:54.994Z,99.90
2022-07-25T21:22:21.862Z,99.90
2022-07-25T21:24:49.616Z,99.90
2022-07-25T21:27:17.048Z,99.90
2022-07-25T21:29:44.335Z,99.90
2022-07-25T21:32:13.613Z,99.90
2022-07-25T21:34:41.508Z,99.90
2022-07-25T21:37:08.525Z,99.90
2022-07-25T21:39:35.365Z,99.90
2022-07-25T21:42:02.211Z,99.90
2022-07-25T21:44:31.487Z,99.90
2022-07-25T21:46:58.199Z,99.90
2022-07-25T21:49:43.645Z,99.90
2022-07-25T21:52:13.911Z,99.90
2022-07-25T21:54:41.892Z,99.90
2022-07-25T21:57:13.072Z,99.90
2022-07-25T21:59:41.925Z,99.90
2022-07-25T22:02:08.674Z,99.90
2022-07-25T22:04:35.532Z,99.90
2022-07-25T22:07:02.766Z,99.90
2022-07-25T22:09:29.619Z,99.90
2022-07-25T22:11:57.578Z,99.90
2022-07-25T22:14:24.507Z,99.90
2022-07-25T22:16:51.238Z,99.90
2022-07-25T22:19:21.898Z,99.90
2022-07-25T22:21:49.470Z,99.90
2022-07-25T22:24:16.465Z,99.90
2022-07-25T22:26:43.226Z,99.90
2022-07-25T22:29:10.548Z,99.90
2022-07-25T22:31:39.193Z,99.90
2022-07-25T22:34:06.750Z,99.90
2022-07-25T22:36:33.598Z,99.90
2022-07-25T22:39:00.265Z,99.90
2022-07-25T22:41:26.960Z,99.90
2022-07-25T22:43:59.043Z,99.90
2022-07-25T22:46:28.270Z,99.90
2022-07-25T22:48:55.314Z,99.90
2022-07-25T22:51:22.349Z,99.90
2022-07-25T22:53:49.250Z,99.90
2022-07-25T22:56:16.831Z,99.90
2022-07-25T22:58:43.531Z,99.90
2022-07-25T23:01:12.633Z,99.90
2022-07-25T23:03:40.771Z,99.90
2022-07-25T23:06:07.662Z,99.90
2022-07-25T23:08:34.413Z,99.90
2022-07-25T23:11:01.164Z,99.90
2022-07-25T23:13:27.825Z,99.90
2022-07-25T23:15:54.534Z,99.90
2022-07-25T23:18:21.302Z,99.90
2022-07-25T23:20:47.950Z,99.90
2022-07-25T23:23:14.667Z,99.90
2022-07-25T23:25:41.394Z,99.90
2022-07-25T23:28:08.103Z,99.90
2022-07-25T23:30:40.052Z,99.90
2022-07-25T23:33:07.920Z,99.90
2022-07-25T23:35:35.453Z,99.90
2022-07-25T23:38:02.191Z,99.90
2022-07-25T23:40:29.280Z,99.90
2022-07-25T23:42:55.970Z,99.90
2022-07-25T23:45:22.976Z,99.90
2022-07-25T23:47:55.101Z,99.90
2022-07-25T23:50:23.096Z,99.90
2022-07-25T23:52:50.320Z,99.90
2022-07-25T23:55:17.329Z,99.90
2022-07-25T23:57:44.101Z,99.90
